Time;durP1;ratioP1;P1;durP2;ratioP2;P2;SDS_P1;SDS_P2;PMS_P1;PMS_P2;Temp;Humidity;BMP_temperature;BMP_pressure;BME280_temperature;BME280_humidity;BME280_pressure;Samples;Min_cycle;Max_cycle;Signal;HPM_P1;HPM_P2
2022/10/25 00:00:49;;;;;;;12.80;3.15;;;14.40;99.90;;;;;;5024799;28;20026;-78
2022/10/25 00:03:16;;;;;;;8.20;3.20;;;14.30;99.90;;;;;;5023855;28;20026;-79
2022/10/25 00:05:41;;;;;;;6.00;2.58;;;14.30;99.90;;;;;;5028664;28;20628;-79
2022/10/25 00:08:07;;;;;;;6.95;3.22;;;14.30;99.90;;;;;;5034522;28;20060;-80
2022/10/25 00:10:34;;;;;;;7.95;2.95;;;14.30;99.90;;;;;;5029758;28;20105;-79
2022/10/25 00:13:00;;;;;;;3.92;2.70;;;14.20;99.90;;;;;;5023100;28;20406;-79
2022/10/25 00:15:26;;;;;;;4.30;2.83;;;14.20;99.90;;;;;;5029055;28;20029;-79
2022/10/25 00:17:51;;;;;;;5.63;3.10;;;14.20;99.90;;;;;;5025920;28;20026;-79
2022/10/25 00:20:18;;;;;;;6.43;3.28;;;14.20;99.90;;;;;;5026882;28;20033;-79
2022/10/25 00:22:44;;;;;;;8.85;2.80;;;14.10;99.90;;;;;;5023178;28;20026;-82
2022/10/25 00:25:10;;;;;;;8.02;3.42;;;14.10;99.90;;;;;;5023915;28;20033;-81
2022/10/25 00:27:36;;;;;;;5.80;3.28;;;14.00;99.90;;;;;;5019683;28;20030;-79
2022/10/25 00:30:03;;;;;;;6.35;2.72;;;14.00;99.90;;;;;;5022656;28;20049;-79
2022/10/25 00:32:29;;;;;;;10.50;3.33;;;14.00;99.90;;;;;;5038070;28;20021;-79
2022/10/25 00:34:55;;;;;;;7.38;3.35;;;14.00;99.90;;;;;;5029956;28;20033;-79
2022/10/25 00:37:21;;;;;;;5.15;3.33;;;13.90;99.90;;;;;;5015128;28;20033;-79
2022/10/25 00:39:47;;;;;;;6.97;3.55;;;13.90;99.90;;;;;;5028091;28;20097;-81
2022/10/25 00:42:18;;;;;;;10.00;3.03;;;13.80;99.90;;;;;;5029030;28;20024;-82
2022/10/25 00:44:55;;;;;;;7.45;3.03;;;13.80;99.90;;;;;;5024925;28;20036;-81
2022/10/25 00:47:21;;;;;;;7.38;3.47;;;13.70;99.90;;;;;;5037728;28;20110;-79
2022/10/25 00:49:59;;;;;;;7.85;3.22;;;13.70;99.90;;;;;;5033859;28;20021;-79
2022/10/25 00:52:27;;;;;;;10.98;4.28;;;13.70;99.90;;;;;;5024147;28;20030;-78
2022/10/25 00:54:53;;;;;;;8.77;3.45;;;13.70;99.90;;;;;;5030591;28;20018;-79
2022/10/25 00:57:52;;;;;;;8.98;3.60;;;13.70;99.90;;;;;;5032088;28;20022;-79
2022/10/25 01:00:18;;;;;;;5.18;3.28;;;13.60;99.90;;;;;;5029983;28;20030;-81
2022/10/25 01:02:45;;;;;;;5.45;3.10;;;13.60;99.90;;;;;;5023902;28;20022;-81
2022/10/25 01:05:11;;;;;;;7.53;2.95;;;13.50;99.90;;;;;;5027606;28;20545;-81
2022/10/25 01:07:38;;;;;;;5.15;2.92;;;13.50;99.90;;;;;;5021915;28;20026;-81
2022/10/25 01:10:05;;;;;;;5.55;2.60;;;13.50;99.90;;;;;;5019013;28;20040;-81
2022/10/25 01:12:30;;;;;;;6.00;2.78;;;13.40;99.90;;;;;;5021034;28;20073;-81
2022/10/25 01:14:56;;;;;;;6.07;2.88;;;13.40;99.90;;;;;;5019924;28;20022;-81
2022/10/25 01:17:34;;;;;;;6.20;2.80;;;13.40;99.90;;;;;;5028303;28;20026;-81
2022/10/25 01:20:06;;;;;;;6.45;3.22;;;13.40;99.90;;;;;;5025169;28;20035;-81
2022/10/25 01:23:06;;;;;;;5.80;2.95;;;13.30;99.90;;;;;;5036120;28;20360;-81
2022/10/25 01:25:50;;;;;;;7.60;3.42;;;13.20;99.90;;;;;;5032039;28;20024;-81
2022/10/25 01:28:55;;;;;;;7.80;3.38;;;13.20;99.90;;;;;;5032318;28;20017;-81
2022/10/25 01:31:24;;;;;;;7.60;3.15;;;13.20;99.90;;;;;;5026972;28;20034;-81
2022/10/25 01:34:06;;;;;;;5.03;3.08;;;13.10;99.90;;;;;;5016402;28;20057;-81
2022/10/25 01:36:48;;;;;;;7.78;3.05;;;13.10;99.90;;;;;;5022132;28;20025;-81
2022/10/25 01:39:34;;;;;;;7.95;2.78;;;13.10;99.90;;;;;;5031844;28;20037;-82
2022/10/25 01:42:11;;;;;;;8.35;3.17;;;13.00;99.90;;;;;;5029895;28;20026;-81
2022/10/25 01:45:02;;;;;;;6.72;3.50;;;13.00;99.90;;;;;;5026253;28;20022;-80
2022/10/25 01:47:53;;;;;;;4.72;3.10;;;13.00;99.90;;;;;;5026135;28;20037;-82
2022/10/25 01:50:29;;;;;;;6.97;3.35;;;13.10;99.90;;;;;;5017439;28;20041;-81
2022/10/25 01:52:55;;;;;;;7.63;3.10;;;13.10;99.90;;;;;;5019104;28;20080;-81
2022/10/25 01:55:28;;;;;;;7.28;3.55;;;13.20;99.90;;;;;;5019700;28;20030;-81
2022/10/25 01:58:29;;;;;;;7.88;3.08;;;13.20;99.90;;;;;;5019601;28;20104;-81
2022/10/25 02:01:01;;;;;;;;;;;13.30;99.90;;;;;;5030435;28;20048;-81
2022/10/25 02:03:44;;;;;;;8.95;3.40;;;13.30;99.90;;;;;;5034920;28;19905;-81
2022/10/25 02:06:23;;;;;;;7.30;3.45;;;13.30;99.90;;;;;;5031155;28;20021;-81
2022/10/25 02:08:51;;;;;;;7.05;3.30;;;13.30;99.90;;;;;;5026753;28;20026;-81
2022/10/25 02:11:27;;;;;;;5.15;3.03;;;13.40;99.90;;;;;;5029436;28;20033;-81
2022/10/25 02:14:06;;;;;;;10.25;3.13;;;13.40;99.90;;;;;;5026463;28;20402;-81
2022/10/25 02:16:38;;;;;;;5.70;3.05;;;13.40;99.90;;;;;;5028739;28;20026;-82
2022/10/25 02:19:07;;;;;;;8.60;3.00;;;13.40;99.90;;;;;;5022354;28;20034;-81
2022/10/25 02:21:35;;;;;;;9.75;3.30;;;13.40;99.90;;;;;;5021001;28;20101;-81
2022/10/25 02:24:09;;;;;;;8.77;3.47;;;13.40;99.90;;;;;;5013746;28;20049;-81
2022/10/25 02:26:36;;;;;;;8.45;3.45;;;13.40;99.90;;;;;;5021251;28;20430;-82
2022/10/25 02:29:03;;;;;;;7.82;3.53;;;13.30;99.90;;;;;;5028365;28;20025;-81
2022/10/25 02:31:31;;;;;;;6.95;3.20;;;13.30;99.90;;;;;;5022086;28;20022;-81
2022/10/25 02:33:57;;;;;;;7.88;3.13;;;13.30;99.90;;;;;;5035075;28;20094;-81
2022/10/25 02:36:24;;;;;;;10.95;3.40;;;13.20;99.90;;;;;;5032505;28;20025;-81
2022/10/25 02:38:51;;;;;;;8.40;3.15;;;13.20;99.90;;;;;;5027343;28;20026;-81
2022/10/25 02:41:18;;;;;;;6.28;2.95;;;13.20;99.90;;;;;;5026171;28;20504;-81
2022/10/25 02:43:44;;;;;;;7.20;3.42;;;13.10;99.90;;;;;;5029814;28;20028;-81
2022/10/25 02:46:16;;;;;;;4.90;3.00;;;13.00;99.90;;;;;;5030118;28;20021;-81
2022/10/25 02:48:43;;;;;;;8.45;3.95;;;13.00;99.90;;;;;;5028083;28;20022;-82
2022/10/25 02:51:11;;;;;;;5.20;3.42;;;13.00;99.90;;;;;;5026683;28;20018;-81
2022/10/25 02:53:38;;;;;;;7.47;3.08;;;12.90;99.90;;;;;;5024583;28;20030;-81
2022/10/25 02:56:15;;;;;;;10.13;3.70;;;12.90;99.90;;;;;;5020533;28;20554;-79
2022/10/25 02:58:43;;;;;;;11.20;4.20;;;12.80;99.90;;;;;;5019036;28;20025;-79
2022/10/25 03:01:10;;;;;;;5.22;2.97;;;12.80;99.90;;;;;;5016684;28;20030;-78
2022/10/25 03:03:36;;;;;;;7.22;3.17;;;12.80;99.90;;;;;;5020773;28;20026;-79
2022/10/25 03:06:03;;;;;;;7.72;4.35;;;12.80;99.90;;;;;;5023477;28;20026;-79
2022/10/25 03:08:29;;;;;;;8.43;3.25;;;12.80;99.90;;;;;;5014796;28;20018;-79
2022/10/25 03:10:55;;;;;;;5.22;3.38;;;12.80;99.90;;;;;;5033891;28;20119;-79
2022/10/25 03:13:22;;;;;;;6.40;2.85;;;12.90;99.90;;;;;;5033470;28;20030;-79
2022/10/25 03:15:48;;;;;;;6.65;3.97;;;12.90;99.90;;;;;;5026445;28;20044;-79
2022/10/25 03:18:14;;;;;;;4.78;3.30;;;12.90;99.90;;;;;;5023516;28;20404;-79
2022/10/25 03:20:41;;;;;;;7.80;3.30;;;12.90;99.90;;;;;;5026015;28;20024;-79
2022/10/25 03:23:07;;;;;;;9.05;3.63;;;12.90;99.90;;;;;;5022037;28;20050;-79
2022/10/25 03:25:34;;;;;;;5.55;2.80;;;12.90;99.90;;;;;;5017107;28;20414;-79
2022/10/25 03:28:00;;;;;;;6.88;3.38;;;12.90;99.90;;;;;;5020563;28;20049;-79
2022/10/25 03:30:26;;;;;;;8.38;3.22;;;12.90;99.90;;;;;;5037827;28;20010;-80
2022/10/25 03:32:52;;;;;;;4.85;2.85;;;12.90;99.90;;;;;;5026651;28;20461;-80
2022/10/25 03:35:18;;;;;;;6.03;3.15;;;12.90;99.90;;;;;;5024614;28;20014;-79
2022/10/25 03:37:44;;;;;;;4.68;2.90;;;12.90;99.90;;;;;;5026195;28;20034;-81
2022/10/25 03:40:10;;;;;;;8.95;3.75;;;12.90;99.90;;;;;;5019569;28;20406;-79
2022/10/25 03:42:36;;;;;;;6.68;3.58;;;12.90;99.90;;;;;;5020603;28;20026;-79
2022/10/25 03:45:02;;;;;;;5.22;2.97;;;12.90;99.90;;;;;;5027042;28;20017;-79
2022/10/25 03:47:28;;;;;;;4.75;3.13;;;12.90;99.90;;;;;;5039458;28;20541;-79
2022/10/25 03:49:54;;;;;;;6.13;3.50;;;12.90;99.90;;;;;;5036664;28;20504;-80
2022/10/25 03:52:19;;;;;;;9.18;3.55;;;12.80;99.90;;;;;;5036600;28;20029;-80
2022/10/25 03:54:45;;;;;;;9.35;3.15;;;12.80;99.90;;;;;;5032670;28;20105;-80
2022/10/25 03:57:11;;;;;;;5.00;2.92;;;12.90;99.90;;;;;;5027881;28;20029;-79
2022/10/25 03:59:37;;;;;;;5.53;3.95;;;12.90;99.90;;;;;;5027767;28;20029;-79
2022/10/25 04:02:03;;;;;;;6.07;3.25;;;12.90;99.90;;;;;;5033031;28;20022;-79
2022/10/25 04:04:28;;;;;;;7.55;3.67;;;12.80;99.90;;;;;;5041435;28;20034;-80
2022/10/25 04:06:54;;;;;;;8.60;3.83;;;12.90;99.90;;;;;;5028473;28;20029;-80
2022/10/25 04:09:20;;;;;;;7.78;3.85;;;12.90;99.90;;;;;;5023877;28;20364;-80
2022/10/25 04:11:46;;;;;;;5.35;3.10;;;12.80;99.90;;;;;;5023260;28;20513;-79
2022/10/25 04:14:12;;;;;;;11.95;3.72;;;12.90;99.90;;;;;;5021821;28;20025;-80
2022/10/25 04:16:38;;;;;;;9.07;3.38;;;12.90;99.90;;;;;;5029334;28;20034;-81
2022/10/25 04:19:04;;;;;;;7.85;3.13;;;12.90;99.90;;;;;;5024282;28;20034;-80
2022/10/25 04:21:30;;;;;;;10.05;3.58;;;12.90;99.90;;;;;;5034709;28;20030;-80
2022/10/25 04:23:56;;;;;;;6.75;3.15;;;12.90;99.90;;;;;;5019518;28;20022;-81
2022/10/25 04:26:21;;;;;;;8.00;3.30;;;12.90;99.90;;;;;;5031321;28;20054;-81
2022/10/25 04:28:51;;;;;;;9.00;2.97;;;12.90;99.90;;;;;;5028801;28;20074;-81
2022/10/25 04:31:18;;;;;;;4.93;3.07;;;13.00;99.90;;;;;;5025977;28;20028;-80
2022/10/25 04:33:47;;;;;;;5.78;3.10;;;13.00;99.90;;;;;;5038979;28;20253;-80
2022/10/25 04:36:12;;;;;;;4.70;2.92;;;13.00;99.90;;;;;;5036317;28;20371;-80
2022/10/25 04:38:38;;;;;;;8.68;3.00;;;13.00;99.90;;;;;;5006623;28;20113;-81
2022/10/25 04:41:04;;;;;;;9.43;2.78;;;13.00;99.90;;;;;;5028529;28;20037;-80
2022/10/25 04:43:30;;;;;;;8.00;3.67;;;13.00;99.90;;;;;;5031018;28;20030;-80
2022/10/25 04:45:59;;;;;;;6.57;3.10;;;13.00;99.90;;;;;;5031542;28;20021;-80
2022/10/25 04:48:25;;;;;;;9.45;3.72;;;13.00;99.90;;;;;;5020555;28;20038;-80
2022/10/25 04:50:51;;;;;;;7.10;3.47;;;13.00;99.90;;;;;;5023111;28;20021;-80
2022/10/25 04:53:16;;;;;;;10.40;4.60;;;13.00;99.90;;;;;;5023307;28;20022;-79
2022/10/25 04:55:42;;;;;;;10.05;3.30;;;13.00;99.90;;;;;;5024488;28;20013;-80
2022/10/25 04:58:08;;;;;;;8.20;3.40;;;13.00;99.90;;;;;;5030084;28;20161;-80
2022/10/25 05:00:34;;;;;;;6.78;3.88;;;13.00;99.90;;;;;;5028284;28;20113;-80
2022/10/25 05:03:00;;;;;;;9.30;3.25;;;13.00;99.90;;;;;;5030886;28;20044;-80
2022/10/25 05:05:26;;;;;;;8.77;3.67;;;13.00;99.90;;;;;;5032239;28;20025;-80
2022/10/25 05:07:52;;;;;;;20.50;3.72;;;13.00;99.90;;;;;;5019336;28;20037;-80
2022/10/25 05:10:18;;;;;;;6.80;3.75;;;13.00;99.90;;;;;;5030924;28;20025;-81
2022/10/25 05:12:43;;;;;;;6.65;3.63;;;13.00;99.90;;;;;;5024922;28;20049;-80
2022/10/25 05:15:10;;;;;;;8.85;3.53;;;13.00;99.90;;;;;;5036342;28;20023;-80
2022/10/25 05:17:36;;;;;;;9.63;3.40;;;13.00;99.90;;;;;;5023410;28;20185;-80
2022/10/25 05:20:02;;;;;;;7.60;3.47;;;13.00;99.90;;;;;;5025503;28;20025;-80
2022/10/25 05:22:28;;;;;;;4.25;3.47;;;12.90;99.90;;;;;;5021257;28;20033;-80
2022/10/25 05:24:54;;;;;;;5.68;3.15;;;12.90;99.90;;;;;;5019801;28;20033;-80
2022/10/25 05:27:20;;;;;;;6.35;3.22;;;12.90;99.90;;;;;;5019096;28;20060;-81
2022/10/25 05:29:46;;;;;;;6.45;3.20;;;12.90;99.90;;;;;;5030644;28;20018;-81
2022/10/25 05:32:12;;;;;;;7.55;3.22;;;12.90;99.90;;;;;;5036289;28;20025;-81
2022/10/25 05:34:38;;;;;;;7.97;4.03;;;12.90;99.90;;;;;;5034962;28;20026;-81
2022/10/25 05:37:03;;;;;;;4.55;3.08;;;12.80;99.90;;;;;;5017009;28;20026;-78
2022/10/25 05:39:30;;;;;;;6.57;3.35;;;12.90;99.90;;;;;;5013366;28;20022;-79
2022/10/25 05:41:56;;;;;;;10.38;3.60;;;12.90;99.90;;;;;;5015317;28;20026;-79
2022/10/25 05:44:22;;;;;;;4.22;3.10;;;12.90;99.90;;;;;;5033638;28;20018;-79
2022/10/25 05:46:47;;;;;;;9.05;3.70;;;12.90;99.90;;;;;;5021010;28;20034;-79
2022/10/25 05:49:13;;;;;;;6.55;3.05;;;12.90;99.90;;;;;;5035752;28;20013;-79
2022/10/25 05:51:39;;;;;;;4.82;3.13;;;13.00;99.90;;;;;;5022826;28;20029;-78
2022/10/25 05:54:09;;;;;;;6.85;3.22;;;13.00;99.90;;;;;;5029445;28;20100;-79
2022/10/25 05:56:36;;;;;;;8.38;3.60;;;13.00;99.90;;;;;;5032850;28;20025;-79
2022/10/25 05:59:10;;;;;;;5.47;2.60;;;13.00;99.90;;;;;;5026535;28;20093;-79
2022/10/25 06:01:39;;;;;;;4.95;3.53;;;13.00;99.90;;;;;;5030042;28;20025;-79
2022/10/25 06:04:05;;;;;;;5.65;3.15;;;13.00;99.90;;;;;;5025933;28;20080;-78
2022/10/25 06:06:31;;;;;;;4.97;3.00;;;13.00;99.90;;;;;;5025583;28;20063;-78
2022/10/25 06:08:58;;;;;;;6.50;3.00;;;13.00;99.90;;;;;;5025843;28;20021;-78
2022/10/25 06:11:25;;;;;;;7.65;3.40;;;13.00;99.90;;;;;;5020190;28;20049;-78
2022/10/25 06:13:51;;;;;;;6.63;3.08;;;13.00;99.90;;;;;;5038859;28;20549;-79
2022/10/25 06:16:19;;;;;;;5.03;2.90;;;13.10;99.90;;;;;;5017405;28;20120;-79
2022/10/25 06:18:45;;;;;;;5.93;3.17;;;13.00;99.90;;;;;;5017709;28;20017;-79
2022/10/25 06:21:14;;;;;;;8.20;3.58;;;13.00;99.90;;;;;;5019943;28;20032;-77
2022/10/25 06:23:41;;;;;;;6.07;3.38;;;13.00;99.90;;;;;;5016907;28;20379;-77
2022/10/25 06:26:09;;;;;;;6.95;3.05;;;13.00;99.90;;;;;;5015115;28;20088;-77
2022/10/25 06:28:36;;;;;;;8.80;3.40;;;13.00;99.90;;;;;;5016552;28;20018;-77
2022/10/25 06:31:04;;;;;;;6.57;3.20;;;13.00;99.90;;;;;;5015545;28;20474;-77
2022/10/25 06:33:30;;;;;;;9.15;3.50;;;13.00;99.90;;;;;;5013940;28;20021;-77
2022/10/25 06:35:58;;;;;;;9.48;4.32;;;13.00;99.90;;;;;;5002620;28;20026;-77
2022/10/25 06:38:24;;;;;;;7.35;3.33;;;13.10;99.90;;;;;;5015627;28;20018;-77
2022/10/25 06:40:50;;;;;;;7.15;3.70;;;13.10;99.90;;;;;;5031522;28;20056;-78
2022/10/25 06:43:15;;;;;;;5.38;3.55;;;13.20;99.90;;;;;;5016612;28;20022;-78
2022/10/25 06:45:41;;;;;;;11.55;3.20;;;13.20;99.90;;;;;;5014954;28;20025;-77
2022/10/25 06:48:07;;;;;;;11.90;3.95;;;13.20;99.90;;;;;;5016184;28;20463;-78
2022/10/25 06:50:33;;;;;;;9.15;3.78;;;13.30;99.90;;;;;;5015191;28;20049;-78
2022/10/25 06:52:59;;;;;;;8.77;3.35;;;13.20;99.90;;;;;;5024160;28;20108;-78
2022/10/25 06:55:24;;;;;;;10.10;4.40;;;13.30;99.90;;;;;;5026553;28;20048;-78
2022/10/25 06:57:54;;;;;;;6.65;3.88;;;13.20;99.90;;;;;;5025254;28;20037;-79
2022/10/25 07:00:20;;;;;;;6.78;3.67;;;13.20;99.90;;;;;;5030327;28;20691;-79
2022/10/25 07:02:56;;;;;;;11.48;4.00;;;13.20;99.90;;;;;;5022421;28;20022;-79
2022/10/25 07:05:22;;;;;;;5.50;3.08;;;13.20;99.90;;;;;;5016770;28;20022;-79
2022/10/25 07:07:49;;;;;;;9.63;3.42;;;13.20;99.90;;;;;;5020352;28;20083;-79
2022/10/25 07:10:15;;;;;;;7.88;3.53;;;13.20;99.90;;;;;;5024576;28;20112;-79
2022/10/25 07:12:41;;;;;;;15.40;5.63;;;13.20;99.90;;;;;;5020700;28;20053;-79
2022/10/25 07:15:07;;;;;;;11.10;4.32;;;13.20;99.90;;;;;;5031179;28;20022;-78
2022/10/25 07:17:33;;;;;;;8.45;3.53;;;13.30;99.90;;;;;;5027267;28;20022;-79
2022/10/25 07:19:59;;;;;;;6.68;3.63;;;13.30;99.90;;;;;;5027440;28;20022;-79
2022/10/25 07:22:25;;;;;;;11.80;4.47;;;13.40;99.90;;;;;;5023448;28;20084;-79
2022/10/25 07:24:51;;;;;;;11.70;4.75;;;13.40;99.90;;;;;;5021563;28;20438;-79
2022/10/25 07:27:17;;;;;;;7.18;3.40;;;13.40;99.90;;;;;;5015937;28;20022;-78
2022/10/25 07:29:43;;;;;;;8.00;3.38;;;13.50;99.90;;;;;;5016749;28;20013;-79
2022/10/25 07:32:09;;;;;;;6.32;3.63;;;13.60;99.90;;;;;;5011474;28;20033;-81
2022/10/25 07:34:35;;;;;;;13.27;4.60;;;13.60;99.90;;;;;;5026649;28;20574;-80
2022/10/25 07:37:02;;;;;;;7.78;3.47;;;13.70;99.90;;;;;;5021390;28;20065;-79
2022/10/25 07:39:28;;;;;;;9.00;3.33;;;13.70;99.90;;;;;;5022273;28;20021;-80
2022/10/25 07:41:53;;;;;;;6.68;3.20;;;13.70;99.90;;;;;;5017705;28;20054;-78
2022/10/25 07:44:20;;;;;;;8.40;3.42;;;13.70;99.90;;;;;;5017822;28;20561;-78
2022/10/25 07:46:47;;;;;;;10.15;4.43;;;13.70;99.90;;;;;;5017218;28;20022;-78
2022/10/25 07:49:13;;;;;;;9.25;4.53;;;13.80;99.90;;;;;;5028316;28;20543;-78
2022/10/25 07:51:39;;;;;;;6.90;3.40;;;13.90;99.90;;;;;;5034005;28;20021;-78
2022/10/25 07:54:05;;;;;;;8.70;4.00;;;14.00;99.90;;;;;;5033344;28;20018;-78
2022/10/25 07:56:31;;;;;;;8.02;3.65;;;14.10;99.90;;;;;;5031286;28;20074;-78
2022/10/25 07:58:57;;;;;;;13.00;3.88;;;14.20;99.90;;;;;;5047068;28;20125;-81
2022/10/25 08:01:26;;;;;;;10.35;3.38;;;14.30;99.90;;;;;;5015745;28;20482;-83
2022/10/25 08:03:52;;;;;;;5.13;3.50;;;14.40;99.90;;;;;;5020661;28;20022;-83
2022/10/25 08:06:19;;;;;;;5.47;3.35;;;14.40;99.90;;;;;;5023286;28;20034;-79
2022/10/25 08:08:45;;;;;;;5.80;3.47;;;14.50;99.90;;;;;;5027228;28;20021;-78
2022/10/25 08:11:11;;;;;;;10.02;3.20;;;14.60;99.90;;;;;;5015237;28;20495;-81
2022/10/25 08:13:38;;;;;;;9.70;3.60;;;14.80;99.90;;;;;;5024495;28;20022;-82
2022/10/25 08:16:05;;;;;;;8.65;3.47;;;14.90;99.90;;;;;;5019184;28;20068;-79
2022/10/25 08:18:31;;;;;;;6.75;3.03;;;15.00;99.90;;;;;;5021229;28;20013;-79
2022/10/25 08:20:59;;;;;;;11.00;3.97;;;15.30;99.90;;;;;;5020637;28;20477;-79
2022/10/25 08:23:25;;;;;;;9.27;3.47;;;15.50;99.90;;;;;;5028009;28;20025;-79
2022/10/25 08:25:51;;;;;;;5.80;3.10;;;15.70;99.90;;;;;;5038274;28;20036;-80
2022/10/25 08:28:17;;;;;;;8.05;3.20;;;16.00;99.90;;;;;;5033754;28;20025;-79
2022/10/25 08:30:43;;;;;;;10.10;3.35;;;16.00;99.90;;;;;;5035798;28;20104;-78
2022/10/25 08:33:09;;;;;;;6.95;3.13;;;16.20;99.90;;;;;;5035800;28;20109;-79
2022/10/25 08:35:35;;;;;;;7.95;3.38;;;16.30;99.90;;;;;;5023674;28;20052;-79
2022/10/25 08:38:02;;;;;;;8.75;3.65;;;16.50;99.90;;;;;;5020629;28;20109;-79
2022/10/25 08:41:29;;;;;;;7.80;3.20;;;16.80;99.90;;;;;;5017531;28;20026;-78
2022/10/25 08:44:04;;;;;;;11.32;3.92;;;17.10;99.90;;;;;;5057188;28;20021;-82
2022/10/25 08:47:00;;;;;;;13.02;4.60;;;17.30;99.90;;;;;;5053246;28;20056;-78
2022/10/25 08:50:03;;;;;;;11.40;4.00;;;17.50;99.90;;;;;;5029265;28;20037;-80
2022/10/25 08:52:36;;;;;;;8.38;3.63;;;17.60;99.90;;;;;;5031092;28;20505;-78
2022/10/25 08:55:04;;;;;;;12.77;3.95;;;17.80;99.90;;;;;;5024041;28;20021;-79
2022/10/25 08:57:37;;;;;;;11.05;3.97;;;17.80;99.90;;;;;;5031968;28;20086;-80
2022/10/25 09:00:11;;;;;;;11.05;3.33;;;17.90;99.90;;;;;;5024393;28;20072;-78
2022/10/25 09:02:52;;;;;;;13.48;3.95;;;18.00;99.90;;;;;;5028572;28;20037;-79
2022/10/25 09:05:36;;;;;;;;;;;18.10;99.90;;;;;;5028657;28;20391;-77
2022/10/25 09:08:40;;;;;;;13.32;5.20;;;18.40;99.90;;;;;;5020648;28;19917;-77
2022/10/25 09:11:42;;;;;;;28.67;7.47;;;18.70;99.90;;;;;;5021571;28;20461;-78
2022/10/25 09:14:32;;;;;;;17.63;7.68;;;19.00;99.90;;;;;;5022290;28;20041;-78
2022/10/25 09:17:09;;;;;;;23.95;6.07;;;19.20;99.90;;;;;;5019716;28;20044;-78
2022/10/25 09:19:41;;;;;;;14.68;5.43;;;19.30;99.90;;;;;;5019768;28;20497;-78
2022/10/25 09:22:19;;;;;;;19.88;6.47;;;19.40;99.90;;;;;;5035032;28;20056;-75
2022/10/25 09:25:02;;;;;;;18.83;6.18;;;19.50;99.90;;;;;;5029408;28;20061;-75
2022/10/25 09:27:38;;;;;;;25.58;6.07;;;19.60;99.90;;;;;;5024851;28;20052;-76
2022/10/25 09:30:11;;;;;;;16.92;6.32;;;19.60;99.90;;;;;;5021002;28;20195;-75
2022/10/25 09:32:40;;;;;;;17.02;6.00;;;19.70;99.90;;;;;;5020677;28;20017;-77
2022/10/25 09:35:15;;;;;;;10.20;4.75;;;19.80;99.90;;;;;;5019320;28;20487;-75
2022/10/25 09:37:48;;;;;;;17.67;6.28;;;19.90;99.90;;;;;;5018873;28;20079;-81
2022/10/25 09:40:28;;;;;;;21.50;5.78;;;20.00;99.90;;;;;;5021038;28;20022;-80
2022/10/25 09:43:03;;;;;;;17.65;5.38;;;20.00;99.90;;;;;;5028021;28;20487;-76
2022/10/25 09:45:47;;;;;;;23.38;5.07;;;20.10;99.90;;;;;;5023906;28;20029;-76
2022/10/25 09:48:20;;;;;;;16.92;4.50;;;20.10;99.90;;;;;;5029779;28;20029;-76
2022/10/25 09:50:52;;;;;;;17.35;4.97;;;20.00;99.90;;;;;;5024011;28;20017;-76
2022/10/25 09:53:18;;;;;;;17.33;4.93;;;20.00;99.90;;;;;;5018775;28;20025;-77
2022/10/25 09:55:52;;;;;;;11.57;4.60;;;20.00;99.90;;;;;;5019799;28;20087;-79
2022/10/25 09:58:31;;;;;;;22.23;5.72;;;20.10;99.90;;;;;;5026668;28;20025;-76
2022/10/25 10:01:05;;;;;;;13.27;4.28;;;20.10;99.90;;;;;;5033449;28;20026;-76
2022/10/25 10:03:34;;;;;;;18.40;5.43;;;20.10;99.90;;;;;;5025081;28;20026;-77
2022/10/25 10:06:06;;;;;;;14.88;4.90;;;20.10;99.90;;;;;;5028841;28;20026;-78
2022/10/25 10:08:34;;;;;;;23.90;4.88;;;20.10;99.90;;;;;;5033125;28;20061;-77
2022/10/25 10:11:00;;;;;;;12.38;4.68;;;20.10;99.90;;;;;;5025861;28;20026;-77
2022/10/25 10:13:30;;;;;;;17.83;4.50;;;20.20;99.90;;;;;;5031193;28;20033;-77
2022/10/25 10:16:03;;;;;;;15.85;4.85;;;20.30;99.90;;;;;;5015285;28;20022;-76
2022/10/25 10:18:31;;;;;;;14.50;5.90;;;20.30;99.90;;;;;;5018180;28;20021;-76
2022/10/25 10:21:23;;;;;;;20.35;5.68;;;20.30;99.90;;;;;;5022530;28;20017;-76
2022/10/25 10:24:01;;;;;;;16.92;5.47;;;20.50;99.90;;;;;;5019957;28;20514;-75
2022/10/25 10:26:42;;;;;;;17.80;5.03;;;20.60;99.90;;;;;;5018345;28;20034;-75
2022/10/25 10:29:08;;;;;;;16.25;4.78;;;20.50;99.90;;;;;;5017852;28;20347;-76
2022/10/25 10:32:05;;;;;;;16.42;5.32;;;20.70;99.90;;;;;;5017000;28;20026;-75
2022/10/25 10:34:49;;;;;;;14.32;6.00;;;20.80;99.90;;;;;;5029842;28;20036;-75
2022/10/25 10:37:21;;;;;;;12.00;4.68;;;21.00;99.90;;;;;;5034356;28;20109;-76
2022/10/25 10:39:49;;;;;;;17.30;5.32;;;21.20;99.90;;;;;;5047472;28;20545;-77
2022/10/25 10:42:17;;;;;;;16.90;5.10;;;21.40;99.90;;;;;;5033495;28;20160;-77
2022/10/25 10:45:09;;;;;;;18.08;6.00;;;21.50;99.90;;;;;;5029174;28;20136;-77
2022/10/25 10:47:48;;;;;;;17.08;5.45;;;21.60;99.90;;;;;;5024899;28;20033;-77
2022/10/25 10:50:23;;;;;;;15.77;5.00;;;21.70;99.90;;;;;;5018681;28;20101;-77
2022/10/25 10:52:52;;;;;;;12.75;5.65;;;21.70;99.90;;;;;;5026490;28;20037;-77
2022/10/25 10:55:19;;;;;;;17.02;4.95;;;21.80;99.90;;;;;;5021110;28;20026;-77
2022/10/25 10:57:45;;;;;;;11.70;5.72;;;21.80;99.90;;;;;;5023099;28;20033;-76
2022/10/25 11:00:26;;;;;;;16.13;5.57;;;21.80;99.90;;;;;;5017245;28;20022;-76
2022/10/25 11:02:52;;;;;;;17.73;5.47;;;21.90;99.90;;;;;;5020536;28;20018;-76
2022/10/25 11:05:27;;;;;;;20.30;4.95;;;21.90;99.90;;;;;;5019610;28;20033;-78
2022/10/25 11:07:56;;;;;;;30.10;6.38;;;21.90;99.90;;;;;;5018649;28;20122;-76
2022/10/25 11:10:24;;;;;;;16.60;6.78;;;22.00;99.90;;;;;;5028275;28;20032;-76
2022/10/25 11:13:27;;;;;;;13.95;5.72;;;22.10;99.90;;;;;;5026468;28;20073;-77
2022/10/25 11:16:31;;;;;;;19.45;6.15;;;22.00;99.90;;;;;;5032410;28;20022;-76
2022/10/25 11:19:12;;;;;;;23.00;6.70;;;21.90;99.90;;;;;;5020223;28;20021;-77
2022/10/25 11:21:52;;;;;;;23.80;5.65;;;22.00;99.90;;;;;;5021003;28;20089;-77
2022/10/25 11:24:24;;;;;;;;;;;22.10;99.90;;;;;;5018802;28;20022;-77
2022/10/25 11:26:59;;;;;;;11.52;5.45;;;22.30;99.90;;;;;;5030876;28;20283;-78
2022/10/25 11:29:46;;;;;;;18.92;5.72;;;22.40;99.90;;;;;;5027632;28;20018;-78
2022/10/25 11:32:27;;;;;;;17.98;6.85;;;22.50;99.90;;;;;;5027347;28;20022;-77
2022/10/25 11:35:14;;;;;;;19.30;5.80;;;22.50;99.90;;;;;;5032149;28;20029;-76
2022/10/25 11:37:59;;;;;;;18.65;5.60;;;22.50;99.90;;;;;;5015037;28;20057;-78
2022/10/25 11:40:33;;;;;;;16.15;5.93;;;22.60;99.90;;;;;;5019453;28;20030;-78
2022/10/25 11:43:37;;;;;;;12.40;4.82;;;22.70;99.90;;;;;;5028558;28;20477;-77
2022/10/25 11:46:15;;;;;;;23.08;7.05;;;22.60;99.90;;;;;;5021395;28;20026;-80
2022/10/25 11:48:54;;;;;;;18.63;5.85;;;22.70;99.90;;;;;;5019287;28;20018;-78
2022/10/25 11:51:28;;;;;;;19.27;5.40;;;22.80;99.90;;;;;;5018899;28;20028;-79
2022/10/25 11:54:30;;;;;;;14.00;5.70;;;22.70;99.90;;;;;;5035245;28;20061;-78
2022/10/25 11:57:02;;;;;;;22.35;5.93;;;22.50;99.90;;;;;;5030465;28;20018;-79
2022/10/25 11:59:52;;;;;;;15.18;5.22;;;22.40;99.90;;;;;;5033399;28;20037;-79
2022/10/25 12:02:29;;;;;;;16.20;5.93;;;22.10;99.90;;;;;;5028758;28;20018;-78
2022/10/25 12:05:02;;;;;;;11.20;5.05;;;21.80;99.90;;;;;;5035482;28;20105;-77
2022/10/25 12:07:37;;;;;;;18.30;5.43;;;21.60;99.90;;;;;;5031069;28;20030;-78
2022/10/25 12:10:15;;;;;;;19.65;5.95;;;21.70;99.90;;;;;;5027445;28;20064;-77
2022/10/25 12:12:57;;;;;;;21.95;6.93;;;21.70;99.90;;;;;;5019458;28;20044;-77
2022/10/25 12:15:35;;;;;;;13.73;4.70;;;21.80;99.90;;;;;;5027464;28;20398;-77
2022/10/25 12:18:02;;;;;;;15.25;6.30;;;21.90;99.90;;;;;;5023307;28;20111;-76
2022/10/25 12:20:29;;;;;;;20.67;5.50;;;22.10;99.90;;;;;;5026192;28;20037;-76
2022/10/25 12:22:58;;;;;;;17.48;5.32;;;22.30;99.90;;;;;;5021015;28;20022;-76
2022/10/25 12:25:33;;;;;;;18.08;5.88;;;22.40;99.90;;;;;;5021737;28;20026;-77
2022/10/25 12:28:05;;;;;;;15.73;6.15;;;22.50;99.90;;;;;;5019958;28;20021;-76
2022/10/25 12:30:33;;;;;;;18.63;6.22;;;22.50;99.90;;;;;;5018562;28;20037;-77
2022/10/25 12:33:34;;;;;;;22.25;7.18;;;22.40;99.90;;;;;;5015290;28;20492;-75
2022/10/25 12:36:30;;;;;;;13.93;5.80;;;22.40;99.90;;;;;;5043995;28;20191;-76
2022/10/25 12:39:00;;;;;;;15.45;5.35;;;22.50;99.90;;;;;;5016246;28;20026;-76
2022/10/25 12:41:39;;;;;;;22.15;5.90;;;22.50;99.90;;;;;;5029338;28;20093;-77
2022/10/25 12:44:24;;;;;;;20.13;6.05;;;22.60;99.90;;;;;;5021611;28;20029;-76
2022/10/25 12:47:02;;;;;;;14.73;5.82;;;22.70;99.90;;;;;;5008923;28;20033;-76
2022/10/25 12:49:53;;;;;;;24.45;6.43;;;22.90;99.90;;;;;;5032816;28;20022;-76
2022/10/25 12:52:34;;;;;;;15.23;6.13;;;23.00;99.90;;;;;;5031113;28;20022;-77
2022/10/25 12:55:26;;;;;;;12.95;5.13;;;23.00;99.90;;;;;;5035527;28;20029;-76
2022/10/25 12:58:11;;;;;;;20.15;5.45;;;22.80;99.90;;;;;;5031061;28;20160;-76
2022/10/25 13:01:06;;;;;;;15.80;4.57;;;22.70;99.90;;;;;;5032794;28;20024;-76
2022/10/25 13:03:44;;;;;;;12.40;4.68;;;22.70;99.90;;;;;;5030456;28;20033;-76
2022/10/25 13:06:31;;;;;;;20.13;5.45;;;22.70;99.90;;;;;;5025772;28;20022;-77